sensor_id;sensor_type;location;lat;lon;timestamp;temperature;humidity
70867;HTU21D;58487;53.474;49.470;2022-12-07T00:01:19;-10.42;77.53
70867;HTU21D;58487;53.474;49.470;2022-12-07T00:03:47;-10.45;78.19
70867;HTU21D;58487;53.474;49.470;2022-12-07T00:06:15;-10.40;78.03
70867;HTU21D;58487;53.474;49.470;2022-12-07T00:08:42;-10.45;77.92
70867;HTU21D;58487;53.474;49.470;2022-12-07T00:11:13;-10.38;77.90
70867;HTU21D;58487;53.474;49.470;2022-12-07T00:13:40;-10.37;77.25
70867;HTU21D;58487;53.474;49.470;2022-12-07T00:16:07;-10.38;76.95
70867;HTU21D;58487;53.474;49.470;2022-12-07T00:18:34;-10.34;76.78
70867;HTU21D;58487;53.474;49.470;2022-12-07T00:23:40;-10.46;77.43
70867;HTU21D;58487;53.474;49.470;2022-12-07T00:28:48;-10.52;78.29
70867;HTU21D;58487;53.474;49.470;2022-12-07T00:31:15;-10.56;77.81
70867;HTU21D;58487;53.474;49.470;2022-12-07T00:33:42;-10.52;77.69
70867;HTU21D;58487;53.474;49.470;2022-12-07T00:36:14;-10.61;77.60
70867;HTU21D;58487;53.474;49.470;2022-12-07T00:38:40;-10.62;77.34
70867;HTU21D;58487;53.474;49.470;2022-12-07T00:41:16;-10.63;77.17
70867;HTU21D;58487;53.474;49.470;2022-12-07T00:43:43;-10.68;77.66
70867;HTU21D;58487;53.474;49.470;2022-12-07T00:46:10;-10.71;77.78
70867;HTU21D;58487;53.474;49.470;2022-12-07T00:48:37;-10.64;77.57
70867;HTU21D;58487;53.474;49.470;2022-12-07T00:51:03;-10.62;77.17
70867;HTU21D;58487;53.474;49.470;2022-12-07T00:53:30;-10.64;77.08
70867;HTU21D;58487;53.474;49.470;2022-12-07T00:55:56;-10.62;77.32
70867;HTU21D;58487;53.474;49.470;2022-12-07T00:58:23;-10.57;76.68
70867;HTU21D;58487;53.474;49.470;2022-12-07T01:00:49;-10.57;76.89
70867;HTU21D;58487;53.474;49.470;2022-12-07T01:03:16;-10.53;76.62
70867;HTU21D;58487;53.474;49.470;2022-12-07T01:05:52;-10.64;77.43
70867;HTU21D;58487;53.474;49.470;2022-12-07T01:08:20;-10.67;77.90
70867;HTU21D;58487;53.474;49.470;2022-12-07T01:10:47;-10.71;78.10
70867;HTU21D;58487;53.474;49.470;2022-12-07T01:13:13;-10.75;78.32
70867;HTU21D;58487;53.474;49.470;2022-12-07T01:15:43;-10.80;78.60
70867;HTU21D;58487;53.474;49.470;2022-12-07T01:18:11;-10.77;78.85
70867;HTU21D;58487;53.474;49.470;2022-12-07T01:20:37;-10.73;78.87
70867;HTU21D;58487;53.474;49.470;2022-12-07T01:23:03;-10.67;78.50
70867;HTU21D;58487;53.474;49.470;2022-12-07T01:25:29;-10.60;77.91
70867;HTU21D;58487;53.474;49.470;2022-12-07T01:27:55;-10.63;77.90
70867;HTU21D;58487;53.474;49.470;2022-12-07T01:30:22;-10.64;78.43
70867;HTU21D;58487;53.474;49.470;2022-12-07T01:32:48;-10.65;78.47
70867;HTU21D;58487;53.474;49.470;2022-12-07T01:35:14;-10.65;78.09
70867;HTU21D;58487;53.474;49.470;2022-12-07T01:37:40;-10.70;77.80
70867;HTU21D;58487;53.474;49.470;2022-12-07T01:40:07;-10.68;77.21
70867;HTU21D;58487;53.474;49.470;2022-12-07T01:42:34;-10.84;77.02
70867;HTU21D;58487;53.474;49.470;2022-12-07T01:45:37;-10.85;76.83
70867;HTU21D;58487;53.474;49.470;2022-12-07T01:48:04;-10.81;77.22
70867;HTU21D;58487;53.474;49.470;2022-12-07T01:50:31;-10.92;77.07
70867;HTU21D;58487;53.474;49.470;2022-12-07T01:52:59;-11.03;77.61
70867;HTU21D;58487;53.474;49.470;2022-12-07T01:55:27;-11.14;79.33
70867;HTU21D;58487;53.474;49.470;2022-12-07T01:57:54;-11.12;78.20
70867;HTU21D;58487;53.474;49.470;2022-12-07T02:00:21;-11.09;77.79
70867;HTU21D;58487;53.474;49.470;2022-12-07T02:02:55;-11.12;77.85
70867;HTU21D;58487;53.474;49.470;2022-12-07T02:05:23;-11.14;77.85
70867;HTU21D;58487;53.474;49.470;2022-12-07T02:07:52;-11.06;77.55
70867;HTU21D;58487;53.474;49.470;2022-12-07T02:10:24;-11.12;77.74
70867;HTU21D;58487;53.474;49.470;2022-12-07T02:13:12;-11.21;78.37
70867;HTU21D;58487;53.474;49.470;2022-12-07T02:18:55;-11.21;77.86
70867;HTU21D;58487;53.474;49.470;2022-12-07T02:21:46;-11.16;78.01
70867;HTU21D;58487;53.474;49.470;2022-12-07T02:24:43;-11.18;77.10
70867;HTU21D;58487;53.474;49.470;2022-12-07T02:30:17;-11.36;78.24
70867;HTU21D;58487;53.474;49.470;2022-12-07T02:33:28;-11.33;79.08
70867;HTU21D;58487;53.474;49.470;2022-12-07T02:38:31;-11.09;78.40
70867;HTU21D;58487;53.474;49.470;2022-12-07T02:43:56;-10.97;78.14
70867;HTU21D;58487;53.474;49.470;2022-12-07T02:46:27;-10.94;78.36
70867;HTU21D;58487;53.474;49.470;2022-12-07T02:48:54;-10.91;78.30
70867;HTU21D;58487;53.474;49.470;2022-12-07T02:51:21;-10.95;78.51
70867;HTU21D;58487;53.474;49.470;2022-12-07T02:53:48;-10.91;78.39
70867;HTU21D;58487;53.474;49.470;2022-12-07T02:56:41;-10.78;77.06
70867;HTU21D;58487;53.474;49.470;2022-12-07T03:07:11;-10.82;76.70
70867;HTU21D;58487;53.474;49.470;2022-12-07T03:09:58;-10.76;76.21
70867;HTU21D;58487;53.474;49.470;2022-12-07T03:17:59;-10.94;75.45
70867;HTU21D;58487;53.474;49.470;2022-12-07T03:20:28;-11.03;75.31
70867;HTU21D;58487;53.474;49.470;2022-12-07T03:22:56;-11.15;76.21
70867;HTU21D;58487;53.474;49.470;2022-12-07T03:25:23;-11.16;77.03
70867;HTU21D;58487;53.474;49.470;2022-12-07T03:27:53;-11.16;77.03
70867;HTU21D;58487;53.474;49.470;2022-12-07T03:30:29;-11.19;76.74
70867;HTU21D;58487;53.474;49.470;2022-12-07T03:33:02;-11.16;77.07
70867;HTU21D;58487;53.474;49.470;2022-12-07T03:35:36;-11.21;76.86
70867;HTU21D;58487;53.474;49.470;2022-12-07T03:40:49;-11.24;76.71
70867;HTU21D;58487;53.474;49.470;2022-12-07T03:43:17;-11.25;76.95
70867;HTU21D;58487;53.474;49.470;2022-12-07T03:51:27;-11.46;77.18
70867;HTU21D;58487;53.474;49.470;2022-12-07T03:54:00;-11.50;77.13
70867;HTU21D;58487;53.474;49.470;2022-12-07T03:56:28;-11.50;77.49
70867;HTU21D;58487;53.474;49.470;2022-12-07T03:58:55;-11.59;77.89
70867;HTU21D;58487;53.474;49.470;2022-12-07T04:01:22;-11.54;77.71
70867;HTU21D;58487;53.474;49.470;2022-12-07T04:03:49;-11.53;77.94
70867;HTU21D;58487;53.474;49.470;2022-12-07T04:06:14;-11.50;77.71
70867;HTU21D;58487;53.474;49.470;2022-12-07T04:08:40;-11.52;77.60
70867;HTU21D;58487;53.474;49.470;2022-12-07T04:11:06;-11.60;77.75
70867;HTU21D;58487;53.474;49.470;2022-12-07T04:13:32;-11.60;77.72
70867;HTU21D;58487;53.474;49.470;2022-12-07T04:16:18;-11.63;77.84
70867;HTU21D;58487;53.474;49.470;2022-12-07T04:18:45;-11.66;78.11
70867;HTU21D;58487;53.474;49.470;2022-12-07T04:21:11;-11.60;77.50
70867;HTU21D;58487;53.474;49.470;2022-12-07T04:23:37;-11.52;77.12
70867;HTU21D;58487;53.474;49.470;2022-12-07T04:26:02;-11.53;76.74
70867;HTU21D;58487;53.474;49.470;2022-12-07T04:28:28;-11.58;77.29
70867;HTU21D;58487;53.474;49.470;2022-12-07T04:30:55;-11.58;77.82
70867;HTU21D;58487;53.474;49.470;2022-12-07T04:33:21;-11.54;77.44
70867;HTU21D;58487;53.474;49.470;2022-12-07T04:35:47;-11.61;77.31
70867;HTU21D;58487;53.474;49.470;2022-12-07T04:38:13;-11.61;77.50
70867;HTU21D;58487;53.474;49.470;2022-12-07T04:40:39;-11.61;77.60
70867;HTU21D;58487;53.474;49.470;2022-12-07T04:43:05;-11.61;77.67
70867;HTU21D;58487;53.474;49.470;2022-12-07T04:45:31;-11.63;77.55
70867;HTU21D;58487;53.474;49.470;2022-12-07T04:47:57;-11.58;77.00
70867;HTU21D;58487;53.474;49.470;2022-12-07T04:50:23;-11.69;77.22
70867;HTU21D;58487;53.474;49.470;2022-12-07T04:52:49;-11.67;77.71
70867;HTU21D;58487;53.474;49.470;2022-12-07T04:55:15;-11.74;78.38
70867;HTU21D;58487;53.474;49.470;2022-12-07T04:57:41;-11.73;78.40
70867;HTU21D;58487;53.474;49.470;2022-12-07T05:00:07;-11.70;77.72
70867;HTU21D;58487;53.474;49.470;2022-12-07T05:02:33;-11.73;77.43
70867;HTU21D;58487;53.474;49.470;2022-12-07T05:04:59;-11.68;76.69
70867;HTU21D;58487;53.474;49.470;2022-12-07T05:07:25;-11.62;76.41
70867;HTU21D;58487;53.474;49.470;2022-12-07T05:09:51;-11.64;76.25
70867;HTU21D;58487;53.474;49.470;2022-12-07T05:12:17;-11.65;76.56
70867;HTU21D;58487;53.474;49.470;2022-12-07T05:14:43;-11.68;76.71
70867;HTU21D;58487;53.474;49.470;2022-12-07T05:17:09;-11.74;76.98
70867;HTU21D;58487;53.474;49.470;2022-12-07T05:19:37;-11.65;76.79
70867;HTU21D;58487;53.474;49.470;2022-12-07T05:22:03;-11.62;77.20
70867;HTU21D;58487;53.474;49.470;2022-12-07T05:24:29;-11.59;76.87
70867;HTU21D;58487;53.474;49.470;2022-12-07T05:26:55;-11.53;76.62
70867;HTU21D;58487;53.474;49.470;2022-12-07T05:29:21;-11.61;76.24
70867;HTU21D;58487;53.474;49.470;2022-12-07T05:31:47;-11.62;76.62
70867;HTU21D;58487;53.474;49.470;2022-12-07T05:34:13;-11.62;76.47
70867;HTU21D;58487;53.474;49.470;2022-12-07T05:36:39;-11.52;76.42
70867;HTU21D;58487;53.474;49.470;2022-12-07T05:39:06;-11.41;76.07
70867;HTU21D;58487;53.474;49.470;2022-12-07T05:41:32;-11.38;75.92
70867;HTU21D;58487;53.474;49.470;2022-12-07T05:44:17;-11.40;76.09
70867;HTU21D;58487;53.474;49.470;2022-12-07T05:46:43;-11.40;75.78
70867;HTU21D;58487;53.474;49.470;2022-12-07T05:49:09;-11.36;75.50
70867;HTU21D;58487;53.474;49.470;2022-12-07T05:51:35;-11.36;75.57
70867;HTU21D;58487;53.474;49.470;2022-12-07T05:54:00;-11.22;74.25
70867;HTU21D;58487;53.474;49.470;2022-12-07T05:56:26;-11.17;74.14
70867;HTU21D;58487;53.474;49.470;2022-12-07T05:58:53;-11.11;73.63
70867;HTU21D;58487;53.474;49.470;2022-12-07T06:01:38;-11.14;73.55
70867;HTU21D;58487;53.474;49.470;2022-12-07T06:04:04;-11.04;72.82
70867;HTU21D;58487;53.474;49.470;2022-12-07T06:06:30;-11.02;72.64
70867;HTU21D;58487;53.474;49.470;2022-12-07T06:08:56;-11.00;72.26
70867;HTU21D;58487;53.474;49.470;2022-12-07T06:11:22;-11.01;71.86
70867;HTU21D;58487;53.474;49.470;2022-12-07T06:14:06;-10.92;71.94
70867;HTU21D;58487;53.474;49.470;2022-12-07T06:16:32;-11.02;72.67
70867;HTU21D;58487;53.474;49.470;2022-12-07T06:18:58;-10.99;72.75
70867;HTU21D;58487;53.474;49.470;2022-12-07T06:21:24;-10.95;72.23
70867;HTU21D;58487;53.474;49.470;2022-12-07T06:23:52;-10.92;72.16
70867;HTU21D;58487;53.474;49.470;2022-12-07T06:26:18;-10.87;71.47
70867;HTU21D;58487;53.474;49.470;2022-12-07T06:28:44;-10.73;71.22
70867;HTU21D;58487;53.474;49.470;2022-12-07T06:31:10;-10.72;69.98
70867;HTU21D;58487;53.474;49.470;2022-12-07T06:33:37;-10.60;70.64
70867;HTU21D;58487;53.474;49.470;2022-12-07T06:36:03;-10.48;69.22
70867;HTU21D;58487;53.474;49.470;2022-12-07T06:38:29;-10.47;69.35
70867;HTU21D;58487;53.474;49.470;2022-12-07T06:40:55;-10.32;69.15
70867;HTU21D;58487;53.474;49.470;2022-12-07T06:43:21;-10.26;68.96
70867;HTU21D;58487;53.474;49.470;2022-12-07T06:45:47;-10.16;68.26
70867;HTU21D;58487;53.474;49.470;2022-12-07T06:48:13;-10.20;68.27
70867;HTU21D;58487;53.474;49.470;2022-12-07T06:50:39;-10.12;68.42
70867;HTU21D;58487;53.474;49.470;2022-12-07T06:53:05;-10.10;67.06
70867;HTU21D;58487;53.474;49.470;2022-12-07T06:55:31;-10.17;67.91
70867;HTU21D;58487;53.474;49.470;2022-12-07T06:57:57;-10.20;68.78
70867;HTU21D;58487;53.474;49.470;2022-12-07T07:00:23;-10.20;68.55
70867;HTU21D;58487;53.474;49.470;2022-12-07T07:02:49;-10.16;69.26
70867;HTU21D;58487;53.474;49.470;2022-12-07T07:05:15;-10.07;68.49
70867;HTU21D;58487;53.474;49.470;2022-12-07T07:07:42;-10.04;69.34
70867;HTU21D;58487;53.474;49.470;2022-12-07T07:10:08;-9.92;69.00
70867;HTU21D;58487;53.474;49.470;2022-12-07T07:12:34;-9.94;69.10
70867;HTU21D;58487;53.474;49.470;2022-12-07T07:15:00;-9.87;69.44
70867;HTU21D;58487;53.474;49.470;2022-12-07T07:17:26;-9.81;68.83
70867;HTU21D;58487;53.474;49.470;2022-12-07T07:19:52;-9.75;68.14
70867;HTU21D;58487;53.474;49.470;2022-12-07T07:22:18;-9.61;68.06
70867;HTU21D;58487;53.474;49.470;2022-12-07T07:24:44;-9.53;67.21
70867;HTU21D;58487;53.474;49.470;2022-12-07T07:27:10;-9.41;67.10
70867;HTU21D;58487;53.474;49.470;2022-12-07T07:29:36;-9.30;66.78
70867;HTU21D;58487;53.474;49.470;2022-12-07T07:32:02;-9.41;66.80
70867;HTU21D;58487;53.474;49.470;2022-12-07T07:34:28;-9.36;66.46
70867;HTU21D;58487;53.474;49.470;2022-12-07T07:36:54;-9.37;66.42
70867;HTU21D;58487;53.474;49.470;2022-12-07T07:39:20;-9.44;67.06
70867;HTU21D;58487;53.474;49.470;2022-12-07T07:41:47;-9.40;66.87
70867;HTU21D;58487;53.474;49.470;2022-12-07T07:44:13;-9.39;66.59
70867;HTU21D;58487;53.474;49.470;2022-12-07T07:46:39;-9.33;66.49
70867;HTU21D;58487;53.474;49.470;2022-12-07T07:49:05;-9.26;66.24
70867;HTU21D;58487;53.474;49.470;2022-12-07T07:51:31;-9.27;66.29
70867;HTU21D;58487;53.474;49.470;2022-12-07T07:53:57;-9.30;65.24
70867;HTU21D;58487;53.474;49.470;2022-12-07T07:56:23;-9.14;65.13
70867;HTU21D;58487;53.474;49.470;2022-12-07T07:58:52;-9.13;65.32
70867;HTU21D;58487;53.474;49.470;2022-12-07T08:01:18;-9.04;65.64
70867;HTU21D;58487;53.474;49.470;2022-12-07T08:03:46;-9.02;65.50
70867;HTU21D;58487;53.474;49.470;2022-12-07T08:06:12;-9.53;66.72
70867;HTU21D;58487;53.474;49.470;2022-12-07T08:08:38;-9.94;68.36
70867;HTU21D;58487;53.474;49.470;2022-12-07T08:11:06;-9.98;69.28
70867;HTU21D;58487;53.474;49.470;2022-12-07T08:13:32;-9.97;68.73
70867;HTU21D;58487;53.474;49.470;2022-12-07T08:15:58;-9.98;69.56
70867;HTU21D;58487;53.474;49.470;2022-12-07T08:18:24;-9.62;68.87
70867;HTU21D;58487;53.474;49.470;2022-12-07T08:20:50;-9.54;67.00
70867;HTU21D;58487;53.474;49.470;2022-12-07T08:23:16;-9.51;66.46
70867;HTU21D;58487;53.474;49.470;2022-12-07T08:25:42;-9.64;66.87
70867;HTU21D;58487;53.474;49.470;2022-12-07T08:28:08;-9.42;67.00
70867;HTU21D;58487;53.474;49.470;2022-12-07T08:30:34;-9.23;66.59
70867;HTU21D;58487;53.474;49.470;2022-12-07T08:33:00;-9.01;66.39
70867;HTU21D;58487;53.474;49.470;2022-12-07T08:35:26;-8.80;65.78
70867;HTU21D;58487;53.474;49.470;2022-12-07T08:37:52;-8.72;65.27
70867;HTU21D;58487;53.474;49.470;2022-12-07T08:40:18;-8.65;64.50
70867;HTU21D;58487;53.474;49.470;2022-12-07T08:42:50;-8.67;64.59
70867;HTU21D;58487;53.474;49.470;2022-12-07T08:45:17;-8.54;64.58
70867;HTU21D;58487;53.474;49.470;2022-12-07T08:47:49;-8.54;64.99
70867;HTU21D;58487;53.474;49.470;2022-12-07T08:50:17;-8.38;65.08
70867;HTU21D;58487;53.474;49.470;2022-12-07T08:52:43;-8.31;64.28
70867;HTU21D;58487;53.474;49.470;2022-12-07T08:55:11;-8.37;64.43
70867;HTU21D;58487;53.474;49.470;2022-12-07T08:57:37;-8.40;64.20
70867;HTU21D;58487;53.474;49.470;2022-12-07T09:00:04;-8.57;65.33
70867;HTU21D;58487;53.474;49.470;2022-12-07T09:02:31;-8.49;65.33
70867;HTU21D;58487;53.474;49.470;2022-12-07T09:04:57;-8.52;63.84
70867;HTU21D;58487;53.474;49.470;2022-12-07T09:07:24;-8.46;64.61
70867;HTU21D;58487;53.474;49.470;2022-12-07T09:09:50;-8.35;64.37
70867;HTU21D;58487;53.474;49.470;2022-12-07T09:12:16;-8.31;62.50
70867;HTU21D;58487;53.474;49.470;2022-12-07T09:14:42;-8.08;63.08
70867;HTU21D;58487;53.474;49.470;2022-12-07T09:17:10;-7.95;61.94
70867;HTU21D;58487;53.474;49.470;2022-12-07T09:19:37;-7.84;61.03
70867;HTU21D;58487;53.474;49.470;2022-12-07T09:22:04;-7.42;59.67
70867;HTU21D;58487;53.474;49.470;2022-12-07T09:24:33;-7.35;59.39
70867;HTU21D;58487;53.474;49.470;2022-12-07T09:27:00;-7.06;59.51
70867;HTU21D;58487;53.474;49.470;2022-12-07T09:29:26;-7.02;56.03
70867;HTU21D;58487;53.474;49.470;2022-12-07T09:31:52;-6.88;56.09
70867;HTU21D;58487;53.474;49.470;2022-12-07T09:34:18;-6.96;56.96
70867;HTU21D;58487;53.474;49.470;2022-12-07T09:36:44;-6.72;55.87
70867;HTU21D;58487;53.474;49.470;2022-12-07T09:39:10;-6.23;54.87
70867;HTU21D;58487;53.474;49.470;2022-12-07T09:41:41;-6.04;53.94
70867;HTU21D;58487;53.474;49.470;2022-12-07T09:44:20;-5.82;53.21
70867;HTU21D;58487;53.474;49.470;2022-12-07T09:46:47;-5.73;52.83
70867;HTU21D;58487;53.474;49.470;2022-12-07T09:49:18;-5.50;53.81
70867;HTU21D;58487;53.474;49.470;2022-12-07T09:51:45;-5.28;52.11
70867;HTU21D;58487;53.474;49.470;2022-12-07T09:54:15;-6.35;59.29
70867;HTU21D;58487;53.474;49.470;2022-12-07T09:56:43;-6.31;55.14
70867;HTU21D;58487;53.474;49.470;2022-12-07T09:59:16;-5.85;52.62
70867;HTU21D;58487;53.474;49.470;2022-12-07T10:01:45;-5.79;53.28
70867;HTU21D;58487;53.474;49.470;2022-12-07T10:04:20;-6.01;52.85
70867;HTU21D;58487;53.474;49.470;2022-12-07T10:06:48;-5.55;52.33
70867;HTU21D;58487;53.474;49.470;2022-12-07T10:09:18;-5.67;55.58
70867;HTU21D;58487;53.474;49.470;2022-12-07T10:14:31;-6.43;55.30
70867;HTU21D;58487;53.474;49.470;2022-12-07T10:16:57;-6.39;56.30
70867;HTU21D;58487;53.474;49.470;2022-12-07T10:19:31;-5.87;53.35
70867;HTU21D;58487;53.474;49.470;2022-12-07T10:24:31;-4.99;50.91
70867;HTU21D;58487;53.474;49.470;2022-12-07T10:26:58;-4.68;50.40
70867;HTU21D;58487;53.474;49.470;2022-12-07T10:29:33;-4.45;50.08
70867;HTU21D;58487;53.474;49.470;2022-12-07T10:34:35;-3.77;48.44
70867;HTU21D;58487;53.474;49.470;2022-12-07T10:37:14;-4.69;49.00
70867;HTU21D;58487;53.474;49.470;2022-12-07T10:39:43;-4.90;50.78
70867;HTU21D;58487;53.474;49.470;2022-12-07T10:42:26;-4.42;49.73
70867;HTU21D;58487;53.474;49.470;2022-12-07T11:07:00;-4.76;50.72
70867;HTU21D;58487;53.474;49.470;2022-12-07T11:12:37;-4.80;50.55
70867;HTU21D;58487;53.474;49.470;2022-12-07T11:15:32;-5.92;52.74
70867;HTU21D;58487;53.474;49.470;2022-12-07T11:28:38;-4.90;51.27
70867;HTU21D;58487;53.474;49.470;2022-12-07T11:31:22;-4.31;49.34
70867;HTU21D;58487;53.474;49.470;2022-12-07T11:33:57;-4.02;48.24
70867;HTU21D;58487;53.474;49.470;2022-12-07T11:36:41;-3.87;46.96
70867;HTU21D;58487;53.474;49.470;2022-12-07T11:39:36;-4.10;46.73
70867;HTU21D;58487;53.474;49.470;2022-12-07T11:42:08;-4.31;47.93
70867;HTU21D;58487;53.474;49.470;2022-12-07T11:47:10;-5.82;52.88
70867;HTU21D;58487;53.474;49.470;2022-12-07T11:49:41;-5.61;51.75
70867;HTU21D;58487;53.474;49.470;2022-12-07T11:52:24;-6.23;53.17
70867;HTU21D;58487;53.474;49.470;2022-12-07T11:54:52;-5.81;52.49
70867;HTU21D;58487;53.474;49.470;2022-12-07T11:57:36;-5.35;51.12
70867;HTU21D;58487;53.474;49.470;2022-12-07T12:00:13;-5.15;50.32
70867;HTU21D;58487;53.474;49.470;2022-12-07T12:02:55;-4.89;49.98
70867;HTU21D;58487;53.474;49.470;2022-12-07T12:05:25;-5.31;50.11
70867;HTU21D;58487;53.474;49.470;2022-12-07T12:21:11;-8.62;62.63
70867;HTU21D;58487;53.474;49.470;2022-12-07T12:23:50;-8.63;62.31
70867;HTU21D;58487;53.474;49.470;2022-12-07T12:26:21;-8.74;61.54
70867;HTU21D;58487;53.474;49.470;2022-12-07T12:33:50;-9.26;64.43
70867;HTU21D;58487;53.474;49.470;2022-12-07T12:46:52;-9.59;67.49
70867;HTU21D;58487;53.474;49.470;2022-12-07T12:51:56;-9.60;67.20
70867;HTU21D;58487;53.474;49.470;2022-12-07T12:54:25;-9.44;67.72
70867;HTU21D;58487;53.474;49.470;2022-12-07T13:02:30;-9.36;65.99
70867;HTU21D;58487;53.474;49.470;2022-12-07T13:05:19;-9.40;67.31
70867;HTU21D;58487;53.474;49.470;2022-12-07T13:13:04;-9.42;66.17
70867;HTU21D;58487;53.474;49.470;2022-12-07T13:15:50;-9.45;67.50
70867;HTU21D;58487;53.474;49.470;2022-12-07T13:28:45;-9.33;66.21
70867;HTU21D;58487;53.474;49.470;2022-12-07T13:33:56;-9.27;66.07
70867;HTU21D;58487;53.474;49.470;2022-12-07T13:36:31;-9.27;66.07
70867;HTU21D;58487;53.474;49.470;2022-12-07T13:41:42;-9.41;67.23
70867;HTU21D;58487;53.474;49.470;2022-12-07T13:44:15;-9.32;66.48
70867;HTU21D;58487;53.474;49.470;2022-12-07T13:46:59;-9.36;66.40
70867;HTU21D;58487;53.474;49.470;2022-12-07T13:49:48;-9.25;65.93
70867;HTU21D;58487;53.474;49.470;2022-12-07T13:52:21;-9.23;66.02
70867;HTU21D;58487;53.474;49.470;2022-12-07T13:54:54;-9.33;66.77
70867;HTU21D;58487;53.474;49.470;2022-12-07T13:57:22;-9.58;66.10
70867;HTU21D;58487;53.474;49.470;2022-12-07T13:59:50;-9.78;67.36
70867;HTU21D;58487;53.474;49.470;2022-12-07T14:02:29;-9.91;66.63
70867;HTU21D;58487;53.474;49.470;2022-12-07T14:05:15;-10.01;67.33
70867;HTU21D;58487;53.474;49.470;2022-12-07T14:10:35;-10.18;67.75
70867;HTU21D;58487;53.474;49.470;2022-12-07T14:13:22;-10.13;68.43
70867;HTU21D;58487;53.474;49.470;2022-12-07T14:15:51;-10.23;68.81
70867;HTU21D;58487;53.474;49.470;2022-12-07T14:18:36;-10.33;69.44
70867;HTU21D;58487;53.474;49.470;2022-12-07T14:21:23;-10.48;69.83
70867;HTU21D;58487;53.474;49.470;2022-12-07T14:24:22;-10.61;71.18
70867;HTU21D;58487;53.474;49.470;2022-12-07T14:26:49;-10.51;70.39
70867;HTU21D;58487;53.474;49.470;2022-12-07T14:31:46;-10.68;70.97
70867;HTU21D;58487;53.474;49.470;2022-12-07T14:34:12;-10.74;72.14
70867;HTU21D;58487;53.474;49.470;2022-12-07T14:36:39;-10.79;71.77
70867;HTU21D;58487;53.474;49.470;2022-12-07T14:39:04;-10.76;72.95
70867;HTU21D;58487;53.474;49.470;2022-12-07T14:41:30;-10.66;73.02
70867;HTU21D;58487;53.474;49.470;2022-12-07T14:44:15;-10.66;72.25
70867;HTU21D;58487;53.474;49.470;2022-12-07T14:46:41;-10.73;71.52
70867;HTU21D;58487;53.474;49.470;2022-12-07T14:49:07;-10.79;73.24
70867;HTU21D;58487;53.474;49.470;2022-12-07T14:51:34;-10.84;72.54
70867;HTU21D;58487;53.474;49.470;2022-12-07T14:54:01;-10.94;72.70
70867;HTU21D;58487;53.474;49.470;2022-12-07T14:56:29;-10.90;73.50
70867;HTU21D;58487;53.474;49.470;2022-12-07T14:58:55;-10.93;73.41
70867;HTU21D;58487;53.474;49.470;2022-12-07T15:01:21;-11.00;73.31
70867;HTU21D;58487;53.474;49.470;2022-12-07T15:03:47;-10.91;73.45
70867;HTU21D;58487;53.474;49.470;2022-12-07T15:06:15;-10.78;73.09
70867;HTU21D;58487;53.474;49.470;2022-12-07T15:08:42;-10.90;73.16
70867;HTU21D;58487;53.474;49.470;2022-12-07T15:11:13;-10.89;73.57
70867;HTU21D;58487;53.474;49.470;2022-12-07T15:13:39;-10.78;72.69
70867;HTU21D;58487;53.474;49.470;2022-12-07T15:16:24;-10.76;72.78
70867;HTU21D;58487;53.474;49.470;2022-12-07T15:18:50;-10.73;72.28
70867;HTU21D;58487;53.474;49.470;2022-12-07T15:21:17;-10.57;71.18
70867;HTU21D;58487;53.474;49.470;2022-12-07T15:23:43;-10.55;70.58
70867;HTU21D;58487;53.474;49.470;2022-12-07T15:26:12;-10.55;70.75
70867;HTU21D;58487;53.474;49.470;2022-12-07T15:28:39;-10.61;70.84
70867;HTU21D;58487;53.474;49.470;2022-12-07T15:31:16;-10.61;70.17
70867;HTU21D;58487;53.474;49.470;2022-12-07T15:33:43;-10.64;69.80
70867;HTU21D;58487;53.474;49.470;2022-12-07T15:36:19;-10.53;69.61
70867;HTU21D;58487;53.474;49.470;2022-12-07T15:38:46;-10.56;69.58
70867;HTU21D;58487;53.474;49.470;2022-12-07T15:41:12;-10.62;70.19
70867;HTU21D;58487;53.474;49.470;2022-12-07T15:43:38;-10.66;70.46
70867;HTU21D;58487;53.474;49.470;2022-12-07T15:46:22;-10.70;71.86
70867;HTU21D;58487;53.474;49.470;2022-12-07T15:48:49;-10.93;71.72
70867;HTU21D;58487;53.474;49.470;2022-12-07T15:51:14;-11.00;72.48
70867;HTU21D;58487;53.474;49.470;2022-12-07T15:53:41;-11.16;72.46
70867;HTU21D;58487;53.474;49.470;2022-12-07T15:56:08;-11.39;73.99
70867;HTU21D;58487;53.474;49.470;2022-12-07T15:58:34;-11.36;73.28
70867;HTU21D;58487;53.474;49.470;2022-12-07T16:01:00;-11.22;72.70
70867;HTU21D;58487;53.474;49.470;2022-12-07T16:03:27;-11.21;71.38
70867;HTU21D;58487;53.474;49.470;2022-12-07T16:05:53;-11.33;71.99
70867;HTU21D;58487;53.474;49.470;2022-12-07T16:08:19;-11.41;72.45
70867;HTU21D;58487;53.474;49.470;2022-12-07T16:10:45;-11.50;73.71
70867;HTU21D;58487;53.474;49.470;2022-12-07T16:13:12;-11.49;73.65
70867;HTU21D;58487;53.474;49.470;2022-12-07T16:15:40;-11.52;73.42
70867;HTU21D;58487;53.474;49.470;2022-12-07T16:18:06;-11.50;73.62
70867;HTU21D;58487;53.474;49.470;2022-12-07T16:20:32;-11.59;73.77
70867;HTU21D;58487;53.474;49.470;2022-12-07T16:22:58;-11.46;73.93
70867;HTU21D;58487;53.474;49.470;2022-12-07T16:25:25;-11.45;73.93
70867;HTU21D;58487;53.474;49.470;2022-12-07T16:27:52;-11.54;73.13
70867;HTU21D;58487;53.474;49.470;2022-12-07T16:30:18;-11.53;73.69
70867;HTU21D;58487;53.474;49.470;2022-12-07T16:32:44;-11.64;73.03
70867;HTU21D;58487;53.474;49.470;2022-12-07T16:35:10;-11.70;73.12
70867;HTU21D;58487;53.474;49.470;2022-12-07T16:37:37;-11.74;74.90
70867;HTU21D;58487;53.474;49.470;2022-12-07T16:40:03;-11.64;73.98
70867;HTU21D;58487;53.474;49.470;2022-12-07T16:42:34;-11.60;74.14
70867;HTU21D;58487;53.474;49.470;2022-12-07T16:45:01;-11.60;74.00
70867;HTU21D;58487;53.474;49.470;2022-12-07T16:47:27;-11.67;74.43
70867;HTU21D;58487;53.474;49.470;2022-12-07T16:49:53;-11.67;73.93
70867;HTU21D;58487;53.474;49.470;2022-12-07T16:52:21;-11.68;74.40
70867;HTU21D;58487;53.474;49.470;2022-12-07T16:54:49;-11.71;74.58
70867;HTU21D;58487;53.474;49.470;2022-12-07T16:57:16;-11.76;73.96
70867;HTU21D;58487;53.474;49.470;2022-12-07T16:59:44;-11.81;74.71
70867;HTU21D;58487;53.474;49.470;2022-12-07T17:02:11;-11.93;73.69
70867;HTU21D;58487;53.474;49.470;2022-12-07T17:04:38;-12.04;75.05
70867;HTU21D;58487;53.474;49.470;2022-12-07T17:07:08;-12.06;74.47
70867;HTU21D;58487;53.474;49.470;2022-12-07T17:09:38;-12.01;74.58
70867;HTU21D;58487;53.474;49.470;2022-12-07T17:12:04;-12.09;75.20
70867;HTU21D;58487;53.474;49.470;2022-12-07T17:14:35;-12.08;75.44
70867;HTU21D;58487;53.474;49.470;2022-12-07T17:17:20;-12.11;74.87
70867;HTU21D;58487;53.474;49.470;2022-12-07T17:19:47;-12.13;74.66
70867;HTU21D;58487;53.474;49.470;2022-12-07T17:22:13;-12.21;75.38
70867;HTU21D;58487;53.474;49.470;2022-12-07T17:24:43;-12.25;75.22
70867;HTU21D;58487;53.474;49.470;2022-12-07T17:27:09;-12.32;75.27
70867;HTU21D;58487;53.474;49.470;2022-12-07T17:29:36;-12.36;76.28
70867;HTU21D;58487;53.474;49.470;2022-12-07T17:32:03;-12.47;75.27
70867;HTU21D;58487;53.474;49.470;2022-12-07T17:34:29;-12.50;75.89